sensor_id;sensor_type;location;lat;lon;timestamp;P1;durP1;ratioP1;P2;durP2;ratioP2
18659;SDS011;9459;50.254;19.014;2023-11-22T13:41:32;124.95;;;22.92;;
18659;SDS011;9459;50.254;19.014;2023-11-22T13:44:01;124.03;;;21.42;;
18659;SDS011;9459;50.254;19.014;2023-11-22T13:46:30;211.95;;;30.30;;
18659;SDS011;9459;50.254;19.014;2023-11-22T13:48:58;112.60;;;20.55;;
18659;SDS011;9459;50.254;19.014;2023-11-22T13:51:27;138.57;;;21.92;;
18659;SDS011;9459;50.254;19.014;2023-11-22T13:53:56;133.10;;;21.55;;
18659;SDS011;9459;50.254;19.014;2023-11-22T13:56:24;151.00;;;24.25;;
18659;SDS011;9459;50.254;19.014;2023-11-22T13:58:54;91.72;;;21.02;;
18659;SDS011;9459;50.254;19.014;2023-11-22T14:01:24;95.28;;;16.95;;
18659;SDS011;9459;50.254;19.014;2023-11-22T14:03:53;131.65;;;21.77;;
18659;SDS011;9459;50.254;19.014;2023-11-22T14:06:23;35.03;;;15.57;;
18659;SDS011;9459;50.254;19.014;2023-11-22T14:08:52;32.08;;;15.70;;
18659;SDS011;9459;50.254;19.014;2023-11-22T14:11:20;21.73;;;12.55;;
18659;SDS011;9459;50.254;19.014;2023-11-22T14:13:49;20.95;;;11.85;;
18659;SDS011;9459;50.254;19.014;2023-11-22T14:16:19;18.63;;;12.63;;
18659;SDS011;9459;50.254;19.014;2023-11-22T14:18:47;17.92;;;10.70;;
18659;SDS011;9459;50.254;19.014;2023-11-22T14:21:16;17.92;;;9.75;;
18659;SDS011;9459;50.254;19.014;2023-11-22T14:23:45;34.35;;;11.98;;
18659;SDS011;9459;50.254;19.014;2023-11-22T14:26:13;141.18;;;21.23;;
18659;SDS011;9459;50.254;19.014;2023-11-22T14:28:42;124.60;;;20.52;;
18659;SDS011;9459;50.254;19.014;2023-11-22T14:31:10;21.92;;;12.00;;
18659;SDS011;9459;50.254;19.014;2023-11-22T14:33:42;17.83;;;10.93;;
18659;SDS011;9459;50.254;19.014;2023-11-22T14:36:11;21.95;;;11.15;;
18659;SDS011;9459;50.254;19.014;2023-11-22T14:38:41;18.88;;;11.40;;
18659;SDS011;9459;50.254;19.014;2023-11-22T14:41:09;22.02;;;11.20;;
18659;SDS011;9459;50.254;19.014;2023-11-22T14:43:39;19.93;;;11.67;;
18659;SDS011;9459;50.254;19.014;2023-11-22T14:46:08;96.82;;;20.85;;
18659;SDS011;9459;50.254;19.014;2023-11-22T14:48:36;127.85;;;21.27;;
18659;SDS011;9459;50.254;19.014;2023-11-22T14:51:06;18.52;;;10.48;;
18659;SDS011;9459;50.254;19.014;2023-11-22T14:56:05;136.98;;;26.08;;
18659;SDS011;9459;50.254;19.014;2023-11-22T14:58:35;154.57;;;28.70;;
18659;SDS011;9459;50.254;19.014;2023-11-22T15:01:03;77.88;;;20.02;;
18659;SDS011;9459;50.254;19.014;2023-11-22T15:03:35;204.00;;;36.72;;
18659;SDS011;9459;50.254;19.014;2023-11-22T15:06:06;256.33;;;39.78;;
18659;SDS011;9459;50.254;19.014;2023-11-22T15:11:23;20.67;;;11.00;;
18659;SDS011;9459;50.254;19.014;2023-11-22T15:13:52;19.73;;;11.07;;
18659;SDS011;9459;50.254;19.014;2023-11-22T15:16:21;18.50;;;10.73;;
18659;SDS011;9459;50.254;19.014;2023-11-22T15:18:49;16.20;;;9.80;;
18659;SDS011;9459;50.254;19.014;2023-11-22T15:21:19;17.80;;;11.02;;
18659;SDS011;9459;50.254;19.014;2023-11-22T15:23:47;19.10;;;11.43;;
18659;SDS011;9459;50.254;19.014;2023-11-22T15:26:16;18.88;;;10.48;;
18659;SDS011;9459;50.254;19.014;2023-11-22T15:28:45;17.85;;;9.90;;
18659;SDS011;9459;50.254;19.014;2023-11-22T15:31:14;21.63;;;12.23;;
18659;SDS011;9459;50.254;19.014;2023-11-22T15:33:43;18.45;;;11.57;;
18659;SDS011;9459;50.254;19.014;2023-11-22T15:36:12;19.67;;;12.38;;
18659;SDS011;9459;50.254;19.014;2023-11-22T15:38:42;18.38;;;10.63;;
18659;SDS011;9459;50.254;19.014;2023-11-22T15:41:10;21.00;;;12.05;;
18659;SDS011;9459;50.254;19.014;2023-11-22T15:43:43;23.10;;;13.15;;
18659;SDS011;9459;50.254;19.014;2023-11-22T15:46:12;21.15;;;12.98;;
18659;SDS011;9459;50.254;19.014;2023-11-22T15:48:44;23.50;;;13.30;;
18659;SDS011;9459;50.254;19.014;2023-11-22T15:51:12;23.13;;;12.50;;
18659;SDS011;9459;50.254;19.014;2023-11-22T15:53:44;26.23;;;13.70;;
18659;SDS011;9459;50.254;19.014;2023-11-22T15:56:13;26.25;;;13.38;;
18659;SDS011;9459;50.254;19.014;2023-11-22T15:58:43;21.63;;;12.43;;
18659;SDS011;9459;50.254;19.014;2023-11-22T16:01:13;18.60;;;10.60;;
18659;SDS011;9459;50.254;19.014;2023-11-22T16:03:43;23.15;;;13.15;;
18659;SDS011;9459;50.254;19.014;2023-11-22T16:06:12;25.17;;;14.85;;
18659;SDS011;9459;50.254;19.014;2023-11-22T16:08:41;28.90;;;15.65;;
18659;SDS011;9459;50.254;19.014;2023-11-22T16:11:10;29.65;;;15.70;;
18659;SDS011;9459;50.254;19.014;2023-11-22T16:13:40;29.13;;;14.35;;
18659;SDS011;9459;50.254;19.014;2023-11-22T16:16:08;23.83;;;14.02;;
18659;SDS011;9459;50.254;19.014;2023-11-22T16:18:38;24.30;;;15.27;;
18659;SDS011;9459;50.254;19.014;2023-11-22T16:21:07;23.20;;;14.32;;
18659;SDS011;9459;50.254;19.014;2023-11-22T16:23:38;28.58;;;17.17;;
18659;SDS011;9459;50.254;19.014;2023-11-22T16:26:07;39.47;;;21.80;;
18659;SDS011;9459;50.254;19.014;2023-11-22T16:28:37;44.60;;;24.00;;
18659;SDS011;9459;50.254;19.014;2023-11-22T16:31:05;35.67;;;18.65;;
18659;SDS011;9459;50.254;19.014;2023-11-22T16:33:37;36.05;;;18.67;;
18659;SDS011;9459;50.254;19.014;2023-11-22T16:36:07;32.92;;;18.50;;
18659;SDS011;9459;50.254;19.014;2023-11-22T16:38:36;27.48;;;15.50;;
18659;SDS011;9459;50.254;19.014;2023-11-22T16:41:05;21.65;;;14.20;;
18659;SDS011;9459;50.254;19.014;2023-11-22T16:43:37;35.97;;;20.35;;
18659;SDS011;9459;50.254;19.014;2023-11-22T16:46:06;31.05;;;17.80;;
18659;SDS011;9459;50.254;19.014;2023-11-22T16:48:34;23.13;;;13.90;;
18659;SDS011;9459;50.254;19.014;2023-11-22T16:51:03;27.55;;;16.70;;
18659;SDS011;9459;50.254;19.014;2023-11-22T16:53:33;29.13;;;16.58;;
18659;SDS011;9459;50.254;19.014;2023-11-22T16:56:01;27.75;;;16.55;;
18659;SDS011;9459;50.254;19.014;2023-11-22T16:58:30;29.65;;;17.10;;
18659;SDS011;9459;50.254;19.014;2023-11-22T17:00:59;31.25;;;16.92;;
18659;SDS011;9459;50.254;19.014;2023-11-22T17:03:28;26.10;;;16.08;;
18659;SDS011;9459;50.254;19.014;2023-11-22T17:05:57;26.65;;;14.43;;
18659;SDS011;9459;50.254;19.014;2023-11-22T17:08:26;25.88;;;15.32;;
18659;SDS011;9459;50.254;19.014;2023-11-22T17:10:54;25.60;;;14.30;;
18659;SDS011;9459;50.254;19.014;2023-11-22T17:13:23;26.77;;;14.68;;
18659;SDS011;9459;50.254;19.014;2023-11-22T17:15:51;25.63;;;13.93;;
18659;SDS011;9459;50.254;19.014;2023-11-22T17:18:23;22.25;;;13.18;;
18659;SDS011;9459;50.254;19.014;2023-11-22T17:20:52;26.02;;;14.02;;
18659;SDS011;9459;50.254;19.014;2023-11-22T17:23:21;47.95;;;24.17;;
18659;SDS011;9459;50.254;19.014;2023-11-22T17:25:50;58.88;;;26.63;;
18659;SDS011;9459;50.254;19.014;2023-11-22T17:28:18;31.10;;;17.73;;
18659;SDS011;9459;50.254;19.014;2023-11-22T17:30:46;31.65;;;17.92;;
18659;SDS011;9459;50.254;19.014;2023-11-22T17:33:15;37.20;;;21.10;;
18659;SDS011;9459;50.254;19.014;2023-11-22T17:35:45;44.65;;;25.42;;
18659;SDS011;9459;50.254;19.014;2023-11-22T17:38:14;32.55;;;20.80;;
18659;SDS011;9459;50.254;19.014;2023-11-22T17:40:43;24.95;;;16.63;;
18659;SDS011;9459;50.254;19.014;2023-11-22T17:43:12;25.38;;;16.02;;
18659;SDS011;9459;50.254;19.014;2023-11-22T17:45:41;30.77;;;18.05;;
18659;SDS011;9459;50.254;19.014;2023-11-22T17:48:10;36.80;;;19.13;;
18659;SDS011;9459;50.254;19.014;2023-11-22T17:50:38;28.88;;;17.38;;
18659;SDS011;9459;50.254;19.014;2023-11-22T17:53:12;41.42;;;22.40;;
18659;SDS011;9459;50.254;19.014;2023-11-22T17:55:40;55.85;;;29.00;;
18659;SDS011;9459;50.254;19.014;2023-11-22T17:58:10;40.92;;;21.88;;
18659;SDS011;9459;50.254;19.014;2023-11-22T18:00:39;35.80;;;19.63;;
18659;SDS011;9459;50.254;19.014;2023-11-22T18:03:08;30.23;;;17.20;;
18659;SDS011;9459;50.254;19.014;2023-11-22T18:05:37;28.48;;;16.10;;
18659;SDS011;9459;50.254;19.014;2023-11-22T18:08:09;25.83;;;15.15;;
18659;SDS011;9459;50.254;19.014;2023-11-22T18:10:41;23.10;;;15.60;;
18659;SDS011;9459;50.254;19.014;2023-11-22T18:13:13;24.98;;;16.10;;
18659;SDS011;9459;50.254;19.014;2023-11-22T18:15:42;22.45;;;14.35;;
18659;SDS011;9459;50.254;19.014;2023-11-22T18:18:11;24.98;;;16.23;;
18659;SDS011;9459;50.254;19.014;2023-11-22T18:20:40;32.95;;;18.48;;
18659;SDS011;9459;50.254;19.014;2023-11-22T18:23:12;27.67;;;17.42;;
18659;SDS011;9459;50.254;19.014;2023-11-22T18:25:46;27.52;;;17.85;;
18659;SDS011;9459;50.254;19.014;2023-11-22T18:28:18;24.98;;;15.35;;
18659;SDS011;9459;50.254;19.014;2023-11-22T18:30:49;25.52;;;14.52;;
18659;SDS011;9459;50.254;19.014;2023-11-22T18:33:19;32.75;;;17.65;;
18659;SDS011;9459;50.254;19.014;2023-11-22T18:35:48;36.50;;;16.95;;
18659;SDS011;9459;50.254;19.014;2023-11-22T18:38:16;38.22;;;18.63;;
18659;SDS011;9459;50.254;19.014;2023-11-22T18:40:49;32.38;;;16.10;;
18659;SDS011;9459;50.254;19.014;2023-11-22T18:43:18;27.00;;;14.33;;
18659;SDS011;9459;50.254;19.014;2023-11-22T18:45:46;19.35;;;11.60;;
18659;SDS011;9459;50.254;19.014;2023-11-22T18:48:15;17.05;;;9.73;;
18659;SDS011;9459;50.254;19.014;2023-11-22T18:50:44;17.42;;;11.35;;
18659;SDS011;9459;50.254;19.014;2023-11-22T18:53:13;23.83;;;15.95;;
18659;SDS011;9459;50.254;19.014;2023-11-22T18:55:41;20.70;;;13.25;;
18659;SDS011;9459;50.254;19.014;2023-11-22T18:58:12;20.70;;;11.70;;
18659;SDS011;9459;50.254;19.014;2023-11-22T19:00:40;18.05;;;11.90;;
18659;SDS011;9459;50.254;19.014;2023-11-22T19:03:14;20.45;;;11.73;;
18659;SDS011;9459;50.254;19.014;2023-11-22T19:05:44;19.60;;;12.43;;
18659;SDS011;9459;50.254;19.014;2023-11-22T19:08:13;17.35;;;10.55;;
18659;SDS011;9459;50.254;19.014;2023-11-22T19:10:42;20.35;;;11.93;;
18659;SDS011;9459;50.254;19.014;2023-11-22T19:13:12;17.10;;;10.98;;
18659;SDS011;9459;50.254;19.014;2023-11-22T19:15:41;20.20;;;11.65;;
18659;SDS011;9459;50.254;19.014;2023-11-22T19:18:10;23.73;;;13.20;;
18659;SDS011;9459;50.254;19.014;2023-11-22T19:20:39;21.42;;;13.65;;
18659;SDS011;9459;50.254;19.014;2023-11-22T19:23:09;21.92;;;12.52;;
18659;SDS011;9459;50.254;19.014;2023-11-22T19:25:38;19.55;;;11.30;;
18659;SDS011;9459;50.254;19.014;2023-11-22T19:28:07;19.67;;;10.45;;
18659;SDS011;9459;50.254;19.014;2023-11-22T19:30:37;18.70;;;10.73;;
18659;SDS011;9459;50.254;19.014;2023-11-22T19:33:08;17.92;;;9.93;;
18659;SDS011;9459;50.254;19.014;2023-11-22T19:35:36;16.60;;;9.73;;
18659;SDS011;9459;50.254;19.014;2023-11-22T19:38:05;18.05;;;10.73;;
18659;SDS011;9459;50.254;19.014;2023-11-22T19:40:35;18.13;;;10.57;;
18659;SDS011;9459;50.254;19.014;2023-11-22T19:43:03;20.25;;;11.02;;
18659;SDS011;9459;50.254;19.014;2023-11-22T19:45:32;14.82;;;9.45;;
18659;SDS011;9459;50.254;19.014;2023-11-22T19:48:02;15.70;;;9.98;;
18659;SDS011;9459;50.254;19.014;2023-11-22T19:50:31;20.75;;;9.75;;
18659;SDS011;9459;50.254;19.014;2023-11-22T19:52:59;16.85;;;10.38;;
18659;SDS011;9459;50.254;19.014;2023-11-22T19:55:29;16.55;;;10.85;;
18659;SDS011;9459;50.254;19.014;2023-11-22T19:57:58;17.52;;;10.13;;
18659;SDS011;9459;50.254;19.014;2023-11-22T20:00:28;17.92;;;9.40;;
18659;SDS011;9459;50.254;19.014;2023-11-22T20:02:58;15.63;;;9.57;;
18659;SDS011;9459;50.254;19.014;2023-11-22T20:05:29;15.70;;;9.63;;
18659;SDS011;9459;50.254;19.014;2023-11-22T20:07:57;16.13;;;9.75;;
18659;SDS011;9459;50.254;19.014;2023-11-22T20:10:27;18.02;;;10.65;;
18659;SDS011;9459;50.254;19.014;2023-11-22T20:12:58;17.52;;;10.23;;
18659;SDS011;9459;50.254;19.014;2023-11-22T20:15:27;22.85;;;10.98;;
18659;SDS011;9459;50.254;19.014;2023-11-22T20:17:56;22.70;;;11.82;;
18659;SDS011;9459;50.254;19.014;2023-11-22T20:20:25;17.80;;;10.80;;
18659;SDS011;9459;50.254;19.014;2023-11-22T20:22:56;22.50;;;12.20;;
18659;SDS011;9459;50.254;19.014;2023-11-22T20:25:24;23.08;;;12.60;;
18659;SDS011;9459;50.254;19.014;2023-11-22T20:27:53;24.08;;;12.18;;
18659;SDS011;9459;50.254;19.014;2023-11-22T20:30:22;23.88;;;13.50;;
18659;SDS011;9459;50.254;19.014;2023-11-22T20:32:51;25.33;;;12.75;;
18659;SDS011;9459;50.254;19.014;2023-11-22T20:35:20;22.83;;;13.13;;
18659;SDS011;9459;50.254;19.014;2023-11-22T20:37:49;24.42;;;13.55;;
18659;SDS011;9459;50.254;19.014;2023-11-22T20:40:19;21.90;;;13.05;;
18659;SDS011;9459;50.254;19.014;2023-11-22T20:42:48;22.00;;;13.15;;
18659;SDS011;9459;50.254;19.014;2023-11-22T20:45:16;29.45;;;15.23;;
18659;SDS011;9459;50.254;19.014;2023-11-22T20:47:45;26.80;;;14.55;;
18659;SDS011;9459;50.254;19.014;2023-11-22T20:50:14;22.38;;;14.02;;
18659;SDS011;9459;50.254;19.014;2023-11-22T20:52:44;27.50;;;15.68;;
18659;SDS011;9459;50.254;19.014;2023-11-22T20:55:13;30.48;;;15.82;;
18659;SDS011;9459;50.254;19.014;2023-11-22T20:57:45;27.30;;;15.00;;
18659;SDS011;9459;50.254;19.014;2023-11-22T21:00:16;27.90;;;17.05;;
18659;SDS011;9459;50.254;19.014;2023-11-22T21:02:49;25.45;;;15.38;;
18659;SDS011;9459;50.254;19.014;2023-11-22T21:05:18;27.73;;;16.83;;
18659;SDS011;9459;50.254;19.014;2023-11-22T21:07:48;27.25;;;16.95;;
18659;SDS011;9459;50.254;19.014;2023-11-22T21:10:16;29.40;;;16.70;;
18659;SDS011;9459;50.254;19.014;2023-11-22T21:12:46;31.75;;;16.70;;
18659;SDS011;9459;50.254;19.014;2023-11-22T21:15:14;26.85;;;15.77;;
18659;SDS011;9459;50.254;19.014;2023-11-22T21:17:43;26.77;;;15.77;;
18659;SDS011;9459;50.254;19.014;2023-11-22T21:20:13;34.67;;;18.42;;
18659;SDS011;9459;50.254;19.014;2023-11-22T21:22:42;29.80;;;17.48;;
18659;SDS011;9459;50.254;19.014;2023-11-22T21:25:11;24.75;;;15.73;;
18659;SDS011;9459;50.254;19.014;2023-11-22T21:27:39;27.33;;;16.23;;
18659;SDS011;9459;50.254;19.014;2023-11-22T21:30:11;34.33;;;17.67;;
18659;SDS011;9459;50.254;19.014;2023-11-22T21:32:41;26.23;;;15.48;;
18659;SDS011;9459;50.254;19.014;2023-11-22T21:35:10;29.10;;;15.32;;
18659;SDS011;9459;50.254;19.014;2023-11-22T21:37:40;27.80;;;16.92;;
18659;SDS011;9459;50.254;19.014;2023-11-22T21:40:09;30.38;;;17.60;;
18659;SDS011;9459;50.254;19.014;2023-11-22T21:42:40;27.08;;;15.32;;
18659;SDS011;9459;50.254;19.014;2023-11-22T21:45:09;32.40;;;18.42;;
18659;SDS011;9459;50.254;19.014;2023-11-22T21:47:41;95.90;;;39.13;;
18659;SDS011;9459;50.254;19.014;2023-11-22T21:50:10;58.20;;;27.70;;
18659;SDS011;9459;50.254;19.014;2023-11-22T21:52:40;35.50;;;20.77;;
18659;SDS011;9459;50.254;19.014;2023-11-22T21:55:10;36.30;;;18.45;;
18659;SDS011;9459;50.254;19.014;2023-11-22T21:57:39;35.05;;;19.15;;
18659;SDS011;9459;50.254;19.014;2023-11-22T22:00:08;30.70;;;16.98;;
18659;SDS011;9459;50.254;19.014;2023-11-22T22:02:38;34.70;;;17.70;;
18659;SDS011;9459;50.254;19.014;2023-11-22T22:05:09;31.23;;;18.63;;
18659;SDS011;9459;50.254;19.014;2023-11-22T22:07:39;32.42;;;17.90;;
18659;SDS011;9459;50.254;19.014;2023-11-22T22:10:08;33.08;;;17.38;;
18659;SDS011;9459;50.254;19.014;2023-11-22T22:12:37;30.52;;;17.35;;
18659;SDS011;9459;50.254;19.014;2023-11-22T22:15:07;31.67;;;17.52;;
18659;SDS011;9459;50.254;19.014;2023-11-22T22:17:37;35.30;;;18.42;;
18659;SDS011;9459;50.254;19.014;2023-11-22T22:20:09;35.38;;;18.52;;
18659;SDS011;9459;50.254;19.014;2023-11-22T22:22:38;28.52;;;16.38;;
18659;SDS011;9459;50.254;19.014;2023-11-22T22:25:07;27.38;;;15.82;;
18659;SDS011;9459;50.254;19.014;2023-11-22T22:27:36;28.63;;;16.83;;
18659;SDS011;9459;50.254;19.014;2023-11-22T22:30:04;28.25;;;15.75;;
18659;SDS011;9459;50.254;19.014;2023-11-22T22:32:34;32.25;;;17.08;;
18659;SDS011;9459;50.254;19.014;2023-11-22T22:35:03;29.80;;;16.27;;
18659;SDS011;9459;50.254;19.014;2023-11-22T22:37:34;30.45;;;16.02;;
18659;SDS011;9459;50.254;19.014;2023-11-22T22:40:03;30.08;;;15.75;;
18659;SDS011;9459;50.254;19.014;2023-11-22T22:42:32;27.35;;;15.85;;
18659;SDS011;9459;50.254;19.014;2023-11-22T22:45:02;28.83;;;15.25;;
18659;SDS011;9459;50.254;19.014;2023-11-22T22:47:31;27.98;;;15.93;;
18659;SDS011;9459;50.254;19.014;2023-11-22T22:50:01;31.77;;;16.25;;
18659;SDS011;9459;50.254;19.014;2023-11-22T22:52:30;33.05;;;17.90;;
18659;SDS011;9459;50.254;19.014;2023-11-22T22:55:00;33.03;;;17.90;;
18659;SDS011;9459;50.254;19.014;2023-11-22T22:57:29;34.85;;;18.95;;
18659;SDS011;9459;50.254;19.014;2023-11-22T22:59:57;34.15;;;19.10;;
18659;SDS011;9459;50.254;19.014;2023-11-22T23:02:26;34.95;;;19.45;;
18659;SDS011;9459;50.254;19.014;2023-11-22T23:04:55;33.47;;;19.15;;
18659;SDS011;9459;50.254;19.014;2023-11-22T23:07:23;34.83;;;19.40;;
18659;SDS011;9459;50.254;19.014;2023-11-22T23:09:52;33.42;;;18.92;;
18659;SDS011;9459;50.254;19.014;2023-11-22T23:12:21;38.50;;;20.83;;
18659;SDS011;9459;50.254;19.014;2023-11-22T23:14:49;35.45;;;20.27;;
18659;SDS011;9459;50.254;19.014;2023-11-22T23:17:18;39.20;;;20.92;;
18659;SDS011;9459;50.254;19.014;2023-11-22T23:19:47;39.55;;;21.90;;
18659;SDS011;9459;50.254;19.014;2023-11-22T23:22:16;40.40;;;21.27;;
18659;SDS011;9459;50.254;19.014;2023-11-22T23:24:44;40.70;;;22.02;;
18659;SDS011;9459;50.254;19.014;2023-11-22T23:27:13;38.28;;;22.23;;
18659;SDS011;9459;50.254;19.014;2023-11-22T23:29:43;46.03;;;24.33;;
18659;SDS011;9459;50.254;19.014;2023-11-22T23:32:11;42.83;;;25.30;;
18659;SDS011;9459;50.254;19.014;2023-11-22T23:34:39;43.92;;;24.60;;
18659;SDS011;9459;50.254;19.014;2023-11-22T23:37:09;43.83;;;26.20;;
18659;SDS011;9459;50.254;19.014;2023-11-22T23:39:38;39.58;;;24.23;;
18659;SDS011;9459;50.254;19.014;2023-11-22T23:42:08;39.95;;;23.35;;
18659;SDS011;9459;50.254;19.014;2023-11-22T23:44:40;41.88;;;24.27;;
18659;SDS011;9459;50.254;19.014;2023-11-22T23:47:11;40.25;;;24.45;;
18659;SDS011;9459;50.254;19.014;2023-11-22T23:49:39;38.00;;;23.63;;
18659;SDS011;9459;50.254;19.014;2023-11-22T23:52:10;38.42;;;21.92;;
18659;SDS011;9459;50.254;19.014;2023-11-22T23:54:38;41.60;;;23.15;;
18659;SDS011;9459;50.254;19.014;2023-11-22T23:57:07;42.30;;;24.00;;
18659;SDS011;9459;50.254;19.014;2023-11-22T23:59:36;37.20;;;23.10;;
